Anchorage/Merrill Field, Alaska
Current Conditions -  °F | °C
As of 8:53 AM on Friday 21 Nov 2014 (Local Time) from PAMR Reporting Station
Clear Clear  
Wind Chill: 29°   Ceiling: Unl
Heat Index: 33°   Visibility: 10mi
Dew Point: 23°   Wind: 5mph
Humidity: 66%   Direction: 180°S
Pressure: 28.96"   Gusts: NA
Location:  61.21°N, 149.85°W
Report Text: PAMR 211753Z 18004KT 10SM CLR 01/M05 A2896 RMK AO2 SLP808 T00061050 10017 21011 56019
Loading
Personal Weather Stations






























Interactive Weather Map New forecast layout! Learn more

10-Day Weather Forecast

Advertisements
Track Severe Weather on mobile